Time;durP1;ratioP1;P1;durP2;ratioP2;P2;SDS_P1;SDS_P2;PMS_P1;PMS_P2;Temp;Humidity;BMP_temperature;BMP_pressure;BME280_temperature;BME280_humidity;BME280_pressure;Samples;Min_cycle;Max_cycle;Signal;HPM_P1;HPM_P2
2021/11/18 00:04:10;;;;;;;20.95;13.07;;;;;;;;;;10284800;28;20080;-63
2021/11/18 00:09:09;;;;;;;22.25;13.70;;;;;;;;;;10271686;28;20529;-63
2021/11/18 00:14:08;;;;;;;25.02;15.95;;;;;;;;;;10271900;28;20115;-64
2021/11/18 00:19:08;;;;;;;19.75;14.40;;;;;;;;;;10280203;28;20083;-63
2021/11/18 00:24:06;;;;;;;16.95;11.05;;;;;;;;;;10279084;28;20081;-64
2021/11/18 00:29:05;;;;;;;22.88;16.20;;;;;;;;;;10279649;28;20084;-63
2021/11/18 00:34:06;;;;;;;14.18;10.27;;;;;;;;;;10276830;28;20087;-63
2021/11/18 00:39:05;;;;;;;25.60;17.58;;;;;;;;;;10277855;28;20074;-63
2021/11/18 00:44:05;;;;;;;41.05;24.67;;;;;;;;;;10278936;28;20075;-63
2021/11/18 00:49:05;;;;;;;36.30;20.27;;;;;;;;;;10289276;28;20072;-63
2021/11/18 00:54:05;;;;;;;11.75;8.13;;;;;;;;;;10278805;28;20502;-64
2021/11/18 00:59:04;;;;;;;73.65;39.85;;;;;;;;;;10276608;28;20057;-63
2021/11/18 01:04:05;;;;;;;63.15;36.25;;;;;;;;;;10287622;28;20095;-64
2021/11/18 01:09:04;;;;;;;32.80;20.17;;;;;;;;;;10280455;28;20099;-64
2021/11/18 01:14:03;;;;;;;28.25;18.50;;;;;;;;;;10277377;28;20076;-64
2021/11/18 01:19:04;;;;;;;15.60;8.88;;;;;;;;;;10277040;28;20082;-64
2021/11/18 01:24:05;;;;;;;21.23;12.65;;;;;;;;;;10276705;28;20056;-64
2021/11/18 01:29:24;;;;;;;44.60;27.58;;;;;;;;;;10276911;28;20506;-64
2021/11/18 01:34:23;;;;;;;28.83;19.63;;;;;;;;;;10276187;28;20061;-64
2021/11/18 01:39:23;;;;;;;13.10;10.13;;;;;;;;;;10276263;28;20041;-64
2021/11/18 01:44:27;;;;;;;37.72;23.05;;;;;;;;;;10273999;28;20044;-64
2021/11/18 01:49:27;;;;;;;25.08;16.05;;;;;;;;;;10277446;28;20045;-63
2021/11/18 01:54:28;;;;;;;11.25;6.82;;;;;;;;;;10275190;28;20048;-64
2021/11/18 01:59:28;;;;;;;27.88;13.77;;;;;;;;;;10275736;28;20060;-64
2021/11/18 02:04:50;;;;;;;38.42;22.38;;;;;;;;;;10289336;28;20063;-64
2021/11/18 02:09:52;;;;;;;37.20;24.85;;;;;;;;;;10274895;28;20081;-64
2021/11/18 02:14:51;;;;;;;30.50;27.23;;;;;;;;;;10277319;28;20080;-63
2021/11/18 02:19:50;;;;;;;18.50;16.58;;;;;;;;;;10274739;28;20045;-63
2021/11/18 02:24:54;;;;;;;17.90;10.82;;;;;;;;;;10274239;28;20049;-63
2021/11/18 02:29:53;;;;;;;10.17;7.70;;;;;;;;;;10273938;28;20087;-64
2021/11/18 02:34:56;;;;;;;14.45;11.43;;;;;;;;;;10273092;28;20088;-63
2021/11/18 02:39:56;;;;;;;14.68;11.02;;;;;;;;;;10275228;28;20083;-63
2021/11/18 02:44:56;;;;;;;8.32;5.75;;;;;;;;;;10273979;28;20528;-63
2021/11/18 02:49:56;;;;;;;13.43;6.45;;;;;;;;;;10274423;28;20064;-63
2021/11/18 02:54:56;;;;;;;8.20;5.75;;;;;;;;;;10273547;28;20095;-63
2021/11/18 02:59:57;;;;;;;8.60;6.80;;;;;;;;;;10273451;28;20049;-63
2021/11/18 03:04:55;;;;;;;15.80;11.50;;;;;;;;;;10286532;28;20037;-63
2021/11/18 03:09:53;;;;;;;11.55;8.60;;;;;;;;;;10272837;28;20110;-63
2021/11/18 03:14:53;;;;;;;10.40;8.30;;;;;;;;;;10273042;28;20045;-63
2021/11/18 03:19:52;;;;;;;11.00;7.97;;;;;;;;;;10272584;28;20075;-64
2021/11/18 03:24:52;;;;;;;12.95;6.47;;;;;;;;;;10272709;28;20496;-65
2021/11/18 03:29:51;;;;;;;7.45;6.15;;;;;;;;;;10271926;28;20085;-64
2021/11/18 03:34:50;;;;;;;8.75;5.78;;;;;;;;;;10271559;28;20088;-63
2021/11/18 03:39:49;;;;;;;11.50;6.45;;;;;;;;;;10272700;28;20422;-63
2021/11/18 03:44:48;;;;;;;16.50;6.57;;;;;;;;;;10272597;28;20513;-63
2021/11/18 03:49:54;;;;;;;7.32;5.72;;;;;;;;;;10274646;28;20068;-63
2021/11/18 03:54:53;;;;;;;9.55;6.50;;;;;;;;;;10280224;28;20084;-63
2021/11/18 03:59:52;;;;;;;8.45;6.13;;;;;;;;;;10279993;28;20520;-63
2021/11/18 04:04:52;;;;;;;9.15;6.55;;;;;;;;;;10295097;28;20081;-63
2021/11/18 04:09:53;;;;;;;13.15;7.07;;;;;;;;;;10279290;28;20052;-65
2021/11/18 04:14:52;;;;;;;11.43;6.47;;;;;;;;;;10279149;28;20344;-63
2021/11/18 04:19:51;;;;;;;9.90;7.15;;;;;;;;;;10297616;28;20087;-63
2021/11/18 04:24:49;;;;;;;8.32;6.53;;;;;;;;;;10279461;28;20041;-63
2021/11/18 04:29:49;;;;;;;9.45;5.88;;;;;;;;;;10278726;28;20399;-63
2021/11/18 04:34:48;;;;;;;8.43;6.25;;;;;;;;;;10278602;28;20080;-63
2021/11/18 04:39:50;;;;;;;9.43;7.15;;;;;;;;;;10278468;28;20060;-63
2021/11/18 04:44:50;;;;;;;9.23;7.13;;;;;;;;;;10278171;28;20048;-63
2021/11/18 04:49:49;;;;;;;7.50;5.82;;;;;;;;;;10277885;28;20083;-63
2021/11/18 04:54:52;;;;;;;7.68;5.97;;;;;;;;;;10279159;28;20053;-64
2021/11/18 04:59:52;;;;;;;9.93;6.57;;;;;;;;;;10277005;28;20049;-64
2021/11/18 05:04:52;;;;;;;9.27;6.55;;;;;;;;;;10291851;28;20063;-64
2021/11/18 05:09:50;;;;;;;9.65;6.57;;;;;;;;;;10278227;28;20452;-64
2021/11/18 05:14:48;;;;;;;7.07;5.85;;;;;;;;;;10277996;28;20080;-64
2021/11/18 05:19:48;;;;;;;7.43;6.43;;;;;;;;;;10295850;28;20057;-65
2021/11/18 05:24:47;;;;;;;8.43;6.15;;;;;;;;;;10277100;28;20049;-64
2021/11/18 05:29:45;;;;;;;13.95;7.13;;;;;;;;;;10276517;28;20078;-63
2021/11/18 05:34:43;;;;;;;15.88;10.35;;;;;;;;;;10275841;28;20072;-64
2021/11/18 05:39:46;;;;;;;11.25;7.03;;;;;;;;;;10289493;28;20486;-63
2021/11/18 05:44:48;;;;;;;9.25;6.00;;;;;;;;;;10275524;28;20091;-64
2021/11/18 05:49:47;;;;;;;10.10;6.63;;;;;;;;;;10274955;28;20055;-65
2021/11/18 05:54:52;;;;;;;7.50;6.47;;;;;;;;;;10272301;28;20089;-63
2021/11/18 05:59:51;;;;;;;10.75;6.88;;;;;;;;;;10261874;28;20091;-63
2021/11/18 06:04:49;;;;;;;15.85;11.70;;;;;;;;;;10273824;28;20060;-63
2021/11/18 06:09:48;;;;;;;36.90;25.20;;;;;;;;;;10283553;28;20080;-63
2021/11/18 06:14:48;;;;;;;50.47;31.00;;;;;;;;;;10269396;28;20529;-64
2021/11/18 06:19:49;;;;;;;35.75;23.55;;;;;;;;;;10270170;28;20110;-65
2021/11/18 06:24:50;;;;;;;42.95;29.58;;;;;;;;;;10280087;28;20095;-64
2021/11/18 06:29:50;;;;;;;45.95;37.08;;;;;;;;;;10283978;28;20080;-64
2021/11/18 06:34:50;;;;;;;39.33;29.15;;;;;;;;;;10278111;28;20098;-64
2021/11/18 06:39:49;;;;;;;32.63;22.50;;;;;;;;;;10292070;28;20541;-64
2021/11/18 06:44:50;;;;;;;51.25;31.13;;;;;;;;;;10282127;28;20072;-65
2021/11/18 06:49:48;;;;;;;43.40;33.13;;;;;;;;;;10272835;28;20083;-64
2021/11/18 06:54:49;;;;;;;37.08;25.45;;;;;;;;;;10272902;28;20073;-64
2021/11/18 06:59:48;;;;;;;46.55;37.95;;;;;;;;;;10286734;28;20040;-64
2021/11/18 07:04:49;;;;;;;31.05;25.42;;;;;;;;;;10280499;28;20080;-63
2021/11/18 07:09:48;;;;;;;42.63;27.92;;;;;;;;;;10279400;28;20442;-64
2021/11/18 07:14:52;;;;;;;55.40;41.70;;;;;;;;;;10279199;28;20084;-64
2021/11/18 07:19:52;;;;;;;72.13;61.08;;;;;;;;;;10272078;28;20468;-65
2021/11/18 07:24:52;;;;;;;39.35;32.40;;;;;;;;;;10283056;28;20573;-64
2021/11/18 07:29:50;;;;;;;25.45;19.73;;;;;;;;;;10275911;28;20064;-65
2021/11/18 07:34:51;;;;;;;20.58;18.13;;;;;;;;;;10282652;28;20095;-64
2021/11/18 07:40:04;;;;;;;42.70;31.00;;;;;;;;;;10284218;28;20096;-64
2021/11/18 07:45:06;;;;;;;22.27;16.58;;;;;;;;;;10278184;28;20072;-65
2021/11/18 07:50:23;;;;;;;22.75;16.85;;;;;;;;;;10290657;28;20084;-66
2021/11/18 07:55:23;;;;;;;20.73;13.38;;;;;;;;;;10277522;28;20073;-65
2021/11/18 08:00:24;;;;;;;30.95;18.35;;;;;;;;;;10277410;28;20083;-65
2021/11/18 08:05:39;;;;;;;62.70;28.35;;;;;;;;;;10291329;28;20049;-64
2021/11/18 08:10:40;;;;;;;26.42;15.43;;;;;;;;;;10277201;28;20049;-64
2021/11/18 08:15:38;;;;;;;17.42;13.80;;;;;;;;;;10276309;28;20081;-64
2021/11/18 08:20:37;;;;;;;30.88;18.02;;;;;;;;;;10277205;28;20457;-64
2021/11/18 08:25:38;;;;;;;22.38;13.93;;;;;;;;;;10275497;28;20059;-63
2021/11/18 08:30:42;;;;;;;23.33;15.68;;;;;;;;;;10276082;28;20045;-63
2021/11/18 08:35:41;;;;;;;24.52;17.42;;;;;;;;;;10275664;28;20510;-63
2021/11/18 08:40:42;;;;;;;45.00;25.42;;;;;;;;;;10275274;28;20041;-64
2021/11/18 08:45:41;;;;;;;20.92;14.52;;;;;;;;;;10274174;28;20083;-64
2021/11/18 08:50:45;;;;;;;19.40;13.73;;;;;;;;;;10274841;28;20101;-64
2021/11/18 08:55:50;;;;;;;18.60;15.07;;;;;;;;;;10274909;28;20053;-64
2021/11/18 09:00:50;;;;;;;17.80;13.43;;;;;;;;;;10274471;28;20300;-64
2021/11/18 09:05:51;;;;;;;27.13;17.38;;;;;;;;;;10289756;28;20064;-63
2021/11/18 09:10:51;;;;;;;31.23;22.23;;;;;;;;;;10274523;28;20049;-64
2021/11/18 09:15:50;;;;;;;20.55;14.38;;;;;;;;;;10275388;28;20486;-64
2021/11/18 09:20:49;;;;;;;21.67;13.75;;;;;;;;;;10273600;28;20084;-64
2021/11/18 09:25:49;;;;;;;28.17;17.98;;;;;;;;;;10275291;28;20064;-63
2021/11/18 09:30:51;;;;;;;21.63;13.70;;;;;;;;;;10273143;28;20064;-63
2021/11/18 09:35:53;;;;;;;20.90;16.33;;;;;;;;;;10273676;28;20112;-63
2021/11/18 09:40:53;;;;;;;28.75;18.92;;;;;;;;;;10274712;28;20061;-63
2021/11/18 09:46:07;;;;;;;18.17;13.68;;;;;;;;;;10271737;28;20072;-64
2021/11/18 09:51:33;;;;;;;23.83;15.57;;;;;;;;;;10273128;28;20041;-63
2021/11/18 09:56:33;;;;;;;18.83;14.30;;;;;;;;;;10226128;28;20087;-63
2021/11/18 10:01:57;;;;;;;15.85;12.85;;;;;;;;;;10271919;28;20041;-63
2021/11/18 10:07:00;;;;;;;16.52;12.35;;;;;;;;;;10267823;28;20053;-64
2021/11/18 10:12:03;;;;;;;23.27;17.25;;;;;;;;;;10272128;28;20121;-63
2021/11/18 10:17:13;;;;;;;21.10;12.77;;;;;;;;;;10271894;28;20084;-63
2021/11/18 10:22:19;;;;;;;19.77;13.25;;;;;;;;;;10274283;28;20071;-63
2021/11/18 10:27:34;;;;;;;30.92;19.95;;;;;;;;;;10284754;28;20072;-63
2021/11/18 10:32:34;;;;;;;19.73;13.60;;;;;;;;;;10272426;28;20079;-63
2021/11/18 10:37:36;;;;;;;23.35;16.00;;;;;;;;;;10272509;28;20065;-63
2021/11/18 10:42:36;;;;;;;26.73;17.02;;;;;;;;;;10272181;28;20067;-63
2021/11/18 10:47:36;;;;;;;22.83;15.10;;;;;;;;;;10272128;28;20510;-64
2021/11/18 10:52:37;;;;;;;81.03;41.25;;;;;;;;;;10271926;28;20079;-64
2021/11/18 10:57:36;;;;;;;20.13;14.85;;;;;;;;;;10271463;28;20068;-64
2021/11/18 11:02:35;;;;;;;29.63;22.25;;;;;;;;;;10271626;28;20068;-64
2021/11/18 11:07:37;;;;;;;99.82;63.25;;;;;;;;;;10285580;28;20069;-64
2021/11/18 11:12:37;;;;;;;21.77;17.25;;;;;;;;;;10271441;28;20088;-64
2021/11/18 11:17:46;;;;;;;19.40;15.38;;;;;;;;;;10271380;28;20073;-64
2021/11/18 11:22:58;;;;;;;25.48;17.20;;;;;;;;;;10276857;28;20524;-64
2021/11/18 11:28:03;;;;;;;28.77;21.75;;;;;;;;;;10283767;28;20076;-64
2021/11/18 11:33:05;;;;;;;21.38;16.48;;;;;;;;;;10271319;28;20085;-64
2021/11/18 11:38:24;;;;;;;35.90;21.20;;;;;;;;;;10271356;28;20072;-64
2021/11/18 11:43:42;;;;;;;42.20;27.95;;;;;;;;;;10269944;28;20060;-64
2021/11/18 11:48:47;;;;;;;20.45;16.48;;;;;;;;;;10270327;28;20076;-64
2021/11/18 11:53:59;;;;;;;30.17;19.80;;;;;;;;;;10270511;28;20522;-63
2021/11/18 11:59:00;;;;;;;34.45;25.73;;;;;;;;;;10270133;28;20178;-63
2021/11/18 12:04:01;;;;;;;26.45;19.73;;;;;;;;;;10279415;28;20083;-63
2021/11/18 12:09:04;;;;;;;38.13;24.77;;;;;;;;;;10272189;28;20068;-63
2021/11/18 12:14:05;;;;;;;26.20;17.08;;;;;;;;;;10276787;28;20064;-64
2021/11/18 12:19:08;;;;;;;23.35;19.00;;;;;;;;;;10276756;28;20493;-64
2021/11/18 12:24:10;;;;;;;25.42;17.45;;;;;;;;;;10276710;28;20521;-64
2021/11/18 12:29:20;;;;;;;28.40;22.10;;;;;;;;;;10291562;28;20072;-64
2021/11/18 12:34:39;;;;;;;34.88;26.75;;;;;;;;;;10279791;28;20076;-63
2021/11/18 12:39:44;;;;;;;23.20;15.50;;;;;;;;;;10276558;28;20384;-63
2021/11/18 12:44:51;;;;;;;30.90;22.70;;;;;;;;;;10276768;28;20075;-63
2021/11/18 12:50:07;;;;;;;16.48;13.32;;;;;;;;;;10275773;28;20084;-63
2021/11/18 12:55:23;;;;;;;21.70;15.35;;;;;;;;;;10275785;28;20073;-63
2021/11/18 13:00:42;;;;;;;37.45;29.25;;;;;;;;;;10266531;28;20084;-63
2021/11/18 13:05:46;;;;;;;54.03;37.08;;;;;;;;;;10289846;28;20072;-64
2021/11/18 13:10:46;;;;;;;38.22;29.92;;;;;;;;;;10275297;28;20080;-63
2021/11/18 13:15:59;;;;;;;37.53;24.60;;;;;;;;;;10275151;28;20073;-64
2021/11/18 13:21:00;;;;;;;56.35;34.75;;;;;;;;;;10274591;28;20076;-63
2021/11/18 13:26:24;;;;;;;55.42;32.90;;;;;;;;;;10275358;28;20088;-64
2021/11/18 13:31:27;;;;;;;45.20;29.93;;;;;;;;;;10275017;28;20080;-64
2021/11/18 13:36:28;;;;;;;62.33;40.90;;;;;;;;;;10274857;28;20506;-64
2021/11/18 13:41:33;;;;;;;43.50;33.65;;;;;;;;;;10274209;28;20072;-63
2021/11/18 13:46:33;;;;;;;42.55;28.20;;;;;;;;;;10274558;28;20474;-63
2021/11/18 13:51:39;;;;;;;54.53;35.35;;;;;;;;;;10274653;28;20091;-63
2021/11/18 13:56:40;;;;;;;28.45;19.50;;;;;;;;;;10274047;28;20076;-64
2021/11/18 14:01:40;;;;;;;57.10;33.22;;;;;;;;;;10273993;28;20068;-63
2021/11/18 14:06:42;;;;;;;47.88;30.00;;;;;;;;;;10287503;28;20471;-63
2021/11/18 14:11:43;;;;;;;44.80;28.45;;;;;;;;;;10273400;28;20482;-63
2021/11/18 14:16:44;;;;;;;85.05;53.85;;;;;;;;;;10273187;28;20057;-64
2021/11/18 14:22:05;;;;;;;72.68;47.22;;;;;;;;;;10273111;28;20080;-63
2021/11/18 14:27:04;;;;;;;99.65;62.17;;;;;;;;;;10272834;28;20064;-63
2021/11/18 14:32:10;;;;;;;151.30;92.90;;;;;;;;;;10272523;28;20057;-63
2021/11/18 14:37:19;;;;;;;125.85;80.38;;;;;;;;;;10272727;28;20080;-64
2021/11/18 14:42:21;;;;;;;228.13;134.05;;;;;;;;;;10272441;28;20037;-63
2021/11/18 14:47:28;;;;;;;67.78;48.92;;;;;;;;;;10272157;28;20072;-63
2021/11/18 14:52:33;;;;;;;44.80;33.00;;;;;;;;;;10272483;28;20514;-63
2021/11/18 14:57:31;;;;;;;;;;;;;;;;;;10273009;28;20076;-63
2021/11/18 15:02:29;;;;;;;65.63;46.95;;;;;;;;;;10272228;28;19956;-63
2021/11/18 15:07:29;;;;;;;73.13;49.85;;;;;;;;;;10284629;28;20076;-63
2021/11/18 15:12:32;;;;;;;150.40;95.88;;;;;;;;;;10271863;28;20065;-64
2021/11/18 15:17:31;;;;;;;50.45;31.10;;;;;;;;;;10270521;28;20097;-63
2021/11/18 15:22:30;;;;;;;32.13;24.30;;;;;;;;;;10271739;28;20511;-62
2021/11/18 15:27:30;;;;;;;77.65;53.15;;;;;;;;;;10271187;28;20075;-63
2021/11/18 15:32:30;;;;;;;97.28;60.05;;;;;;;;;;10270247;28;20069;-63
2021/11/18 15:37:28;;;;;;;89.25;59.97;;;;;;;;;;10271210;28;20076;-63
2021/11/18 15:42:27;;;;;;;82.55;57.33;;;;;;;;;;10271311;28;20073;-63
2021/11/18 15:47:27;;;;;;;70.00;44.25;;;;;;;;;;10275383;28;20067;-62
2021/11/18 15:52:26;;;;;;;55.10;42.25;;;;;;;;;;10278899;28;20060;-63
2021/11/18 15:57:25;;;;;;;81.45;56.70;;;;;;;;;;10278884;28;20087;-63
2021/11/18 16:02:23;;;;;;;91.22;53.90;;;;;;;;;;10278833;28;20400;-63
2021/11/18 16:07:26;;;;;;;89.32;57.78;;;;;;;;;;10293239;28;20048;-63
2021/11/18 16:12:28;;;;;;;56.33;37.15;;;;;;;;;;10278531;28;20510;-64
2021/11/18 16:17:28;;;;;;;44.03;32.42;;;;;;;;;;10278167;28;20072;-64
2021/11/18 16:22:28;;;;;;;63.92;46.67;;;;;;;;;;10277013;28;20072;-63
2021/11/18 16:27:29;;;;;;;74.80;49.95;;;;;;;;;;10278459;28;20057;-63
2021/11/18 16:32:28;;;;;;;137.80;80.50;;;;;;;;;;10277814;28;20092;-64
2021/11/18 16:37:27;;;;;;;126.20;75.70;;;;;;;;;;10277484;28;20078;-64
2021/11/18 16:42:28;;;;;;;119.18;73.22;;;;;;;;;;10276707;28;20061;-63
2021/11/18 16:47:28;;;;;;;124.40;84.30;;;;;;;;;;10277165;28;20076;-63
2021/11/18 16:52:27;;;;;;;92.22;61.65;;;;;;;;;;10276717;28;20068;-64
2021/11/18 16:57:28;;;;;;;55.88;39.05;;;;;;;;;;10276262;28;20072;-64
2021/11/18 17:02:27;;;;;;;51.10;36.55;;;;;;;;;;10276402;28;20071;-64
2021/11/18 17:07:26;;;;;;;46.65;32.17;;;;;;;;;;10290451;28;20071;-63
2021/11/18 17:12:24;;;;;;;61.83;42.60;;;;;;;;;;10276218;28;20060;-63
2021/11/18 17:17:24;;;;;;;43.63;31.13;;;;;;;;;;10276600;28;20068;-62
2021/11/18 17:22:25;;;;;;;44.25;31.38;;;;;;;;;;10275731;28;20061;-63
2021/11/18 17:27:24;;;;;;;48.10;32.05;;;;;;;;;;10274524;28;20514;-63
2021/11/18 17:32:25;;;;;;;73.72;43.53;;;;;;;;;;10274893;28;20060;-63
2021/11/18 17:37:24;;;;;;;66.95;38.80;;;;;;;;;;10274812;28;20072;-64
2021/11/18 17:42:24;;;;;;;60.35;38.95;;;;;;;;;;10278855;28;20075;-62
2021/11/18 17:47:26;;;;;;;36.30;24.52;;;;;;;;;;10294158;28;20079;-62
2021/11/18 17:52:26;;;;;;;33.92;23.20;;;;;;;;;;10289861;28;20076;-62
2021/11/18 17:57:24;;;;;;;31.20;21.92;;;;;;;;;;10280980;28;20056;-63
2021/11/18 18:02:25;;;;;;;32.40;23.63;;;;;;;;;;10292821;28;20166;-63
2021/11/18 18:07:24;;;;;;;34.15;23.73;;;;;;;;;;10287926;28;20076;-63
2021/11/18 18:12:24;;;;;;;39.08;27.00;;;;;;;;;;10279557;28;20073;-62
2021/11/18 18:17:25;;;;;;;35.50;25.35;;;;;;;;;;10284680;28;20513;-63
2021/11/18 18:22:25;;;;;;;57.10;35.30;;;;;;;;;;10297174;28;20095;-63
2021/11/18 18:27:25;;;;;;;59.85;39.05;;;;;;;;;;10303447;28;20072;-63
2021/11/18 18:32:27;;;;;;;76.50;49.28;;;;;;;;;;10292678;28;20049;-62
2021/11/18 18:37:31;;;;;;;55.13;36.40;;;;;;;;;;10291821;28;20084;-63
2021/11/18 18:42:29;;;;;;;32.00;23.52;;;;;;;;;;10284110;28;20075;-61
2021/11/18 18:47:29;;;;;;;28.20;22.27;;;;;;;;;;10270898;28;20088;-63
2021/11/18 18:52:28;;;;;;;26.45;18.88;;;;;;;;;;10277512;28;20064;-63
2021/11/18 18:57:30;;;;;;;49.17;34.22;;;;;;;;;;10289681;28;20505;-63
2021/11/18 19:02:34;;;;;;;26.38;20.73;;;;;;;;;;10271171;28;20067;-63
2021/11/18 19:07:33;;;;;;;32.30;22.38;;;;;;;;;;10278595;28;20091;-62
2021/11/18 19:12:31;;;;;;;35.53;24.50;;;;;;;;;;10272025;28;20064;-63
2021/11/18 19:17:32;;;;;;;38.60;25.25;;;;;;;;;;10283236;28;20081;-63
2021/11/18 19:22:32;;;;;;;33.35;25.48;;;;;;;;;;10280195;28;20446;-63
2021/11/18 19:27:36;;;;;;;65.68;47.90;;;;;;;;;;10271810;28;20056;-63
2021/11/18 19:32:39;;;;;;;47.40;37.53;;;;;;;;;;10235079;28;1179366;-62
2021/11/18 19:37:41;;;;;;;38.10;24.02;;;;;;;;;;10285112;28;20081;-63
2021/11/18 19:42:40;;;;;;;57.00;39.70;;;;;;;;;;10285819;28;20144;-63
2021/11/18 19:47:40;;;;;;;33.78;26.77;;;;;;;;;;10282070;28;20056;-62
2021/11/18 19:52:40;;;;;;;38.75;27.42;;;;;;;;;;10289785;28;20509;-62
2021/11/18 19:57:39;;;;;;;33.42;24.40;;;;;;;;;;10273389;28;20522;-62
2021/11/18 20:02:37;;;;;;;35.47;26.60;;;;;;;;;;10282539;28;20068;-64
2021/11/18 20:07:37;;;;;;;34.17;23.35;;;;;;;;;;10293410;28;20083;-62
2021/11/18 20:12:38;;;;;;;36.78;26.40;;;;;;;;;;10282016;28;20069;-63
2021/11/18 20:17:37;;;;;;;44.53;28.25;;;;;;;;;;10295956;28;20098;-66
2021/11/18 20:22:37;;;;;;;53.92;38.47;;;;;;;;;;10276042;28;20060;-63
2021/11/18 20:27:37;;;;;;;54.53;39.38;;;;;;;;;;10276225;28;20060;-62
2021/11/18 20:32:37;;;;;;;46.45;33.53;;;;;;;;;;10287804;28;20083;-63
2021/11/18 20:37:35;;;;;;;37.13;26.10;;;;;;;;;;10294134;28;20544;-63
2021/11/18 20:42:34;;;;;;;45.55;33.20;;;;;;;;;;10301246;28;20076;-63
2021/11/18 20:47:34;;;;;;;44.22;31.88;;;;;;;;;;10299725;28;20489;-63
2021/11/18 20:52:34;;;;;;;34.22;25.80;;;;;;;;;;10297574;28;20106;-63
2021/11/18 20:57:34;;;;;;;38.15;29.35;;;;;;;;;;10289908;28;20088;-63
2021/11/18 21:02:34;;;;;;;31.55;26.30;;;;;;;;;;10291460;28;20140;-62
2021/11/18 21:07:36;;;;;;;35.97;27.00;;;;;;;;;;10318203;28;20076;-64
2021/11/18 21:12:34;;;;;;;44.33;31.55;;;;;;;;;;10319333;28;20472;-63
2021/11/18 21:17:34;;;;;;;157.32;87.20;;;;;;;;;;10319502;28;20068;-63
2021/11/18 21:22:35;;;;;;;334.45;174.25;;;;;;;;;;10318966;28;20079;-63
2021/11/18 21:27:34;;;;;;;60.50;40.03;;;;;;;;;;10318622;28;20067;-64
2021/11/18 21:32:34;;;;;;;50.90;35.70;;;;;;;;;;10317997;28;20072;-63
2021/11/18 21:37:33;;;;;;;49.58;37.80;;;;;;;;;;10318167;28;20103;-62
2021/11/18 21:42:31;;;;;;;67.90;46.95;;;;;;;;;;10317329;28;20064;-62
2021/11/18 21:47:30;;;;;;;35.45;25.90;;;;;;;;;;10317940;28;20503;-62
2021/11/18 21:52:30;;;;;;;40.55;29.33;;;;;;;;;;10317769;28;20044;-63
2021/11/18 21:57:32;;;;;;;31.45;23.67;;;;;;;;;;10294448;28;20531;-63
2021/11/18 22:02:30;;;;;;;38.83;27.27;;;;;;;;;;10276659;28;20044;-63
2021/11/18 22:07:31;;;;;;;61.55;40.78;;;;;;;;;;10275814;28;20037;-64
2021/11/18 22:12:29;;;;;;;26.33;19.63;;;;;;;;;;10275751;28;20075;-63
2021/11/18 22:17:28;;;;;;;26.35;20.17;;;;;;;;;;10275589;28;20048;-63
2021/11/18 22:22:28;;;;;;;28.05;17.73;;;;;;;;;;10276552;28;20560;-63
2021/11/18 22:27:32;;;;;;;24.33;19.27;;;;;;;;;;10276531;28;20413;-63
2021/11/18 22:32:31;;;;;;;26.52;19.02;;;;;;;;;;10275623;28;20451;-64
2021/11/18 22:37:29;;;;;;;30.42;24.13;;;;;;;;;;10276364;28;20049;-63
2021/11/18 22:42:29;;;;;;;22.90;16.77;;;;;;;;;;10275916;28;20071;-64
2021/11/18 22:47:29;;;;;;;21.10;15.57;;;;;;;;;;10275754;28;20531;-64
2021/11/18 22:52:27;;;;;;;25.52;16.33;;;;;;;;;;10275153;28;20498;-63
2021/11/18 22:57:26;;;;;;;26.17;19.33;;;;;;;;;;10274923;28;20069;-63
2021/11/18 23:02:27;;;;;;;25.92;18.88;;;;;;;;;;10275328;28;20076;-63
2021/11/18 23:07:27;;;;;;;25.48;18.30;;;;;;;;;;10289476;28;20057;-63
2021/11/18 23:12:25;;;;;;;18.67;14.10;;;;;;;;;;10275205;28;20040;-64
2021/11/18 23:17:24;;;;;;;20.15;14.85;;;;;;;;;;10275049;28;20045;-63
2021/11/18 23:22:24;;;;;;;13.25;10.77;;;;;;;;;;10277254;28;20075;-63
2021/11/18 23:27:25;;;;;;;14.35;11.05;;;;;;;;;;10291967;28;20045;-63
2021/11/18 23:32:24;;;;;;;12.93;9.73;;;;;;;;;;10274653;28;20061;-63
2021/11/18 23:37:23;;;;;;;16.02;12.48;;;;;;;;;;10274218;28;20065;-63
2021/11/18 23:42:22;;;;;;;13.48;10.23;;;;;;;;;;10273177;28;20073;-63
2021/11/18 23:47:24;;;;;;;26.50;19.13;;;;;;;;;;10274403;28;20072;-63
2021/11/18 23:52:22;;;;;;;15.52;9.73;;;;;;;;;;10274458;28;20041;-64
2021/11/18 23:57:21;;;;;;;21.17;15.27;;;;;;;;;;10274537;28;20521;-63
